createdAt,value
2023-01-02T00:01:33.501Z,14.10
2023-01-02T00:04:01.828Z,14.00
2023-01-02T00:06:33.917Z,14.00
2023-01-02T00:09:03.880Z,14.20
2023-01-02T00:11:32.089Z,14.20
2023-01-02T00:14:00.345Z,14.40
2023-01-02T00:16:28.580Z,14.20
2023-01-02T00:18:56.842Z,14.20
2023-01-02T00:21:25.019Z,14.10
2023-01-02T00:23:53.207Z,14.10
2023-01-02T00:26:22.746Z,14.00
2023-01-02T00:28:50.915Z,14.20
2023-01-02T00:31:19.174Z,14.20
2023-01-02T00:33:47.348Z,14.50
2023-01-02T00:36:15.750Z,14.50
2023-01-02T00:38:43.936Z,14.60
2023-01-02T00:41:12.273Z,14.30
2023-01-02T00:43:43.508Z,14.20
2023-01-02T00:46:12.469Z,14.40
2023-01-02T00:48:41.035Z,14.20
2023-01-02T00:51:09.630Z,14.20
2023-01-02T00:53:38.197Z,14.10
2023-01-02T00:56:07.093Z,14.40
2023-01-02T00:58:35.549Z,14.50
2023-01-02T01:01:06.009Z,14.50
2023-01-02T01:03:34.554Z,14.40
2023-01-02T01:06:08.583Z,14.10
2023-01-02T01:08:38.114Z,14.50
2023-01-02T01:11:08.040Z,14.10
2023-01-02T01:13:36.374Z,14.30
2023-01-02T01:16:11.223Z,14.10
2023-01-02T01:18:39.885Z,14.00
2023-01-02T01:21:09.373Z,14.20
2023-01-02T01:23:37.821Z,14.10
2023-01-02T01:26:07.806Z,14.20
2023-01-02T01:28:36.774Z,14.00
2023-01-02T01:31:06.564Z,13.80
2023-01-02T01:33:36.474Z,13.80
2023-01-02T01:36:06.004Z,13.80
2023-01-02T01:38:34.940Z,14.20
2023-01-02T01:41:04.984Z,13.90
2023-01-02T01:43:42.510Z,14.90
2023-01-02T01:46:22.802Z,14.30
2023-01-02T01:48:59.875Z,14.30
2023-01-02T01:51:30.545Z,14.60
2023-01-02T01:54:06.654Z,14.70
2023-01-02T01:56:37.224Z,14.30
2023-01-02T01:59:06.140Z,14.60
2023-01-02T02:01:34.678Z,14.40
2023-01-02T02:04:04.796Z,14.40
2023-01-02T02:06:33.119Z,14.30
2023-01-02T02:09:07.247Z,13.60
2023-01-02T02:11:36.775Z,13.70
2023-01-02T02:14:04.980Z,14.00
2023-01-02T02:16:48.314Z,14.20
2023-01-02T02:19:57.777Z,14.10
2023-01-02T02:22:50.681Z,14.10
2023-01-02T02:26:03.553Z,13.90
2023-01-02T02:29:22.196Z,13.90
2023-01-02T02:31:58.497Z,13.70
2023-01-02T02:34:36.296Z,13.70
2023-01-02T02:37:16.635Z,13.60
2023-01-02T02:40:00.244Z,14.00
2023-01-02T02:42:45.121Z,14.10
2023-01-02T02:48:02.338Z,13.90
2023-01-02T02:50:35.165Z,14.00
2023-01-02T02:53:09.848Z,13.90
2023-01-02T03:00:44.063Z,13.70
2023-01-02T03:03:19.529Z,13.70
2023-01-02T03:06:09.088Z,14.00
2023-01-02T03:08:48.462Z,14.40
2023-01-02T03:11:17.274Z,14.00
2023-01-02T03:13:54.817Z,14.70
2023-01-02T03:16:33.642Z,14.30
2023-01-02T03:19:09.989Z,13.90
2023-01-02T03:21:42.288Z,14.60
2023-01-02T03:24:13.675Z,14.20
2023-01-02T03:26:46.255Z,13.90
2023-01-02T03:29:20.871Z,14.20
2023-01-02T03:31:52.741Z,14.40
2023-01-02T03:34:27.871Z,14.00
2023-01-02T03:37:01.371Z,13.90
2023-01-02T03:39:34.947Z,14.20
2023-01-02T03:42:07.649Z,14.10
2023-01-02T03:44:42.320Z,14.20
2023-01-02T03:47:25.739Z,14.20
2023-01-02T03:49:58.446Z,13.70
2023-01-02T03:52:26.715Z,13.90
2023-01-02T03:54:55.854Z,13.60
2023-01-02T03:57:34.353Z,14.20
2023-01-02T04:00:09.169Z,14.10
2023-01-02T04:02:45.399Z,13.70
2023-01-02T04:05:21.332Z,13.80
2023-01-02T04:07:58.031Z,13.60
2023-01-02T04:10:29.093Z,13.80
2023-01-02T04:13:02.584Z,14.10
2023-01-02T04:15:35.145Z,13.60
2023-01-02T04:18:09.900Z,13.50
2023-01-02T04:20:44.438Z,13.50
2023-01-02T04:23:19.030Z,13.50
2023-01-02T04:25:55.231Z,13.30
2023-01-02T04:28:27.763Z,13.90
2023-01-02T04:31:09.025Z,14.20
2023-01-02T04:33:44.387Z,13.70
2023-01-02T04:36:16.947Z,13.50
2023-01-02T04:38:46.755Z,13.50
2023-01-02T04:41:26.963Z,13.70
2023-01-02T04:43:55.481Z,13.50
2023-01-02T04:46:25.293Z,13.80
2023-01-02T04:48:54.252Z,14.00
2023-01-02T04:51:24.380Z,14.30
2023-01-02T04:56:22.502Z,14.20
2023-01-02T04:58:50.938Z,14.50
2023-01-02T05:01:21.464Z,14.60
2023-01-02T05:03:52.710Z,14.70
2023-01-02T05:06:21.300Z,14.50
2023-01-02T05:08:50.886Z,14.40
2023-01-02T05:11:21.195Z,14.60
2023-01-02T05:13:49.528Z,13.80
2023-01-02T05:16:17.955Z,13.80
2023-01-02T05:18:46.185Z,14.00
2023-01-02T05:21:28.960Z,13.90
2023-01-02T05:24:00.945Z,14.00
2023-01-02T05:26:30.790Z,13.80
2023-01-02T05:28:59.028Z,13.80
2023-01-02T05:31:28.025Z,14.00
2023-01-02T05:33:57.907Z,14.20
2023-01-02T05:36:27.673Z,14.40
2023-01-02T05:38:56.219Z,14.20
2023-01-02T05:41:25.934Z,14.40
2023-01-02T05:43:55.698Z,14.60
2023-01-02T05:46:23.979Z,14.60
2023-01-02T05:48:52.199Z,14.30
2023-01-02T05:51:20.604Z,14.20
2023-01-02T05:53:50.879Z,14.10
2023-01-02T05:56:21.546Z,14.20
2023-01-02T05:58:52.035Z,13.80
2023-01-02T06:01:22.410Z,14.00
2023-01-02T06:03:52.452Z,14.10
2023-01-02T06:06:24.850Z,13.80
2023-01-02T06:08:53.373Z,13.60
2023-01-02T06:11:21.572Z,13.60
2023-01-02T06:13:51.152Z,13.90
2023-01-02T06:16:19.398Z,13.90
2023-01-02T06:18:47.944Z,13.60
2023-01-02T06:21:18.560Z,13.80
2023-01-02T06:23:47.663Z,13.60
2023-01-02T06:26:18.359Z,13.90
2023-01-02T06:28:50.224Z,13.90
2023-01-02T06:31:21.859Z,13.60
2023-01-02T06:33:54.390Z,13.30
2023-01-02T06:36:22.725Z,13.30
2023-01-02T06:38:51.236Z,13.50
2023-01-02T06:41:19.659Z,13.20
2023-01-02T06:43:49.797Z,13.70
2023-01-02T06:46:21.376Z,13.90
2023-01-02T06:48:50.995Z,14.20
2023-01-02T06:51:21.867Z,13.70
2023-01-02T06:53:50.326Z,13.70
2023-01-02T06:56:21.261Z,13.90
2023-01-02T06:58:50.141Z,13.70
2023-01-02T07:01:21.766Z,13.60
2023-01-02T07:03:50.326Z,14.00
2023-01-02T07:06:21.407Z,14.10
2023-01-02T07:08:50.115Z,14.20
2023-01-02T07:11:20.354Z,14.20
2023-01-02T07:13:51.228Z,13.60
2023-01-02T07:16:23.295Z,14.10
2023-01-02T07:18:53.275Z,14.20
2023-01-02T07:21:22.314Z,14.20
2023-01-02T07:23:51.066Z,14.30
2023-01-02T07:26:19.715Z,14.00
2023-01-02T07:28:48.585Z,13.70
2023-01-02T07:31:20.648Z,14.00
2023-01-02T07:33:49.019Z,14.10
2023-01-02T07:36:22.132Z,14.10
2023-01-02T07:38:52.628Z,14.40
2023-01-02T07:41:24.236Z,14.00
2023-01-02T07:43:54.950Z,13.80
2023-01-02T07:46:25.160Z,13.70
2023-01-02T07:48:53.465Z,14.10
2023-01-02T07:51:26.992Z,14.30
2023-01-02T07:53:56.047Z,14.00
2023-01-02T07:56:24.325Z,14.50
2023-01-02T07:58:52.947Z,14.50
2023-01-02T08:01:21.220Z,14.00
2023-01-02T08:03:50.929Z,14.20
2023-01-02T08:06:20.409Z,14.40
2023-01-02T08:08:48.975Z,14.10
2023-01-02T08:11:20.009Z,14.00
2023-01-02T08:13:48.556Z,13.50
2023-01-02T08:16:19.668Z,13.60
2023-01-02T08:18:48.209Z,13.60
2023-01-02T08:21:17.907Z,13.70
2023-01-02T08:23:46.084Z,14.00
2023-01-02T08:26:14.338Z,13.20
2023-01-02T08:28:43.304Z,13.90
2023-01-02T08:31:14.788Z,13.60
2023-01-02T08:33:43.175Z,14.10
2023-01-02T08:36:11.937Z,13.80
2023-01-02T08:38:41.628Z,13.50
2023-01-02T08:41:10.077Z,13.60
2023-01-02T08:43:38.435Z,13.10
2023-01-02T08:46:08.390Z,13.20
2023-01-02T08:48:37.451Z,13.20
2023-01-02T08:51:07.227Z,12.90
2023-01-02T08:53:35.463Z,12.40
2023-01-02T08:56:26.260Z,12.70
2023-01-02T08:58:56.570Z,13.40
2023-01-02T09:01:27.350Z,13.70
2023-01-02T09:03:56.320Z,13.20
2023-01-02T09:06:27.072Z,13.20
2023-01-02T09:08:57.949Z,13.20
2023-01-02T09:11:29.887Z,13.80
2023-01-02T09:14:01.057Z,14.20
2023-01-02T09:18:59.361Z,13.70
2023-01-02T09:21:27.826Z,14.70
2023-01-02T09:41:34.215Z,15.70
2023-01-02T09:44:11.232Z,16.00
2023-01-02T09:46:48.913Z,15.10
2023-01-02T09:49:22.373Z,13.90
2023-01-02T09:51:51.289Z,13.80
2023-01-02T09:54:26.722Z,14.60
2023-01-02T10:02:34.752Z,14.20
2023-01-02T10:05:29.965Z,14.80
2023-01-02T10:08:07.516Z,13.90
2023-01-02T10:10:42.110Z,15.10
2023-01-02T10:20:59.076Z,14.80
2023-01-02T10:23:34.556Z,15.00
2023-01-02T10:26:07.621Z,15.70
2023-01-02T10:28:45.203Z,15.90
2023-01-02T10:36:28.358Z,16.30
2023-01-02T10:38:59.951Z,15.20
2023-01-02T10:41:29.295Z,14.50
2023-01-02T10:49:06.021Z,13.70
2023-01-02T10:51:35.387Z,12.60
2023-01-02T10:54:06.182Z,13.00
2023-01-02T11:01:53.992Z,13.80
2023-01-02T11:04:26.035Z,15.90
2023-01-02T11:06:58.427Z,16.20
2023-01-02T11:09:29.365Z,15.30
2023-01-02T11:12:00.500Z,15.50
2023-01-02T11:14:35.475Z,14.20
2023-01-02T11:17:10.958Z,14.80
2023-01-02T11:19:44.139Z,14.70
2023-01-02T11:25:00.419Z,14.40
2023-01-02T11:27:32.780Z,14.20
2023-01-02T11:30:02.000Z,14.30
2023-01-02T11:32:39.824Z,14.80
2023-01-02T11:35:38.236Z,14.60
2023-01-02T11:40:58.131Z,15.80
2023-01-02T11:49:04.895Z,16.00
2023-01-02T11:51:38.068Z,16.30
2023-01-02T11:54:14.246Z,16.70
2023-01-02T11:56:45.488Z,15.40
2023-01-02T11:59:20.046Z,15.30
2023-01-02T12:01:56.997Z,14.40
2023-01-02T12:04:27.002Z,15.30
2023-01-02T12:07:12.186Z,14.80
2023-01-02T12:15:39.596Z,14.50
2023-01-02T12:18:21.025Z,14.70
2023-01-02T12:21:02.122Z,15.40
2023-01-02T12:24:30.136Z,15.20
2023-01-02T12:27:05.971Z,14.60
2023-01-02T12:30:00.987Z,14.10
2023-01-02T12:33:01.698Z,14.80
2023-01-02T12:36:21.060Z,14.50
2023-01-02T12:39:37.676Z,14.80
2023-01-02T12:42:26.957Z,15.10
2023-01-02T12:44:57.604Z,15.20
2023-01-02T12:47:54.437Z,15.00
2023-01-02T12:50:55.670Z,15.50
2023-01-02T12:53:44.970Z,15.80
2023-01-02T12:56:22.729Z,15.70
2023-01-02T12:59:08.931Z,15.50
2023-01-02T13:01:45.529Z,16.20
2023-01-02T13:04:21.272Z,15.80
2023-01-02T13:06:55.455Z,15.30
2023-01-02T13:09:31.200Z,15.20
2023-01-02T13:12:06.541Z,15.50
2023-01-02T13:14:40.977Z,15.20
2023-01-02T13:17:44.525Z,14.90
2023-01-02T13:20:24.444Z,15.00
2023-01-02T13:23:04.750Z,15.70
2023-01-02T13:25:35.679Z,15.70
2023-01-02T13:28:05.959Z,15.30
2023-01-02T13:30:46.208Z,15.40
2023-01-02T13:33:26.240Z,14.90
2023-01-02T13:35:54.691Z,14.90
2023-01-02T13:38:28.141Z,15.30
2023-01-02T13:41:01.069Z,14.40
2023-01-02T13:43:33.089Z,13.80
2023-01-02T13:48:39.340Z,13.70
2023-01-02T13:51:14.953Z,15.30
2023-01-02T13:53:45.979Z,15.80
2023-01-02T13:56:17.643Z,15.20
2023-01-02T13:58:59.805Z,15.90
2023-01-02T14:02:14.997Z,15.20
2023-01-02T14:04:43.717Z,15.00
2023-01-02T14:07:48.754Z,15.80
2023-01-02T14:10:42.250Z,15.50
2023-01-02T14:13:29.738Z,15.60
2023-01-02T14:16:47.788Z,15.20
2023-01-02T14:19:22.237Z,15.40
2023-01-02T14:22:03.810Z,15.90
2023-01-02T14:24:36.883Z,15.30
2023-01-02T14:27:07.813Z,15.50
2023-01-02T14:29:52.799Z,14.60
2023-01-02T14:32:37.721Z,13.50
2023-01-02T14:35:09.551Z,14.60
2023-01-02T14:37:43.465Z,15.40
2023-01-02T14:40:19.348Z,14.70
2023-01-02T14:43:12.529Z,14.80
2023-01-02T14:45:47.038Z,14.90
2023-01-02T14:48:22.984Z,15.10
2023-01-02T14:50:56.794Z,15.70
2023-01-02T14:53:30.824Z,15.70
2023-01-02T14:56:04.910Z,15.80
2023-01-02T14:58:44.741Z,15.50
2023-01-02T15:01:42.011Z,14.70
2023-01-02T15:04:22.981Z,15.10
2023-01-02T15:07:07.689Z,14.80
2023-01-02T15:09:43.876Z,15.70
2023-01-02T15:12:42.148Z,15.90
2023-01-02T15:15:13.277Z,16.20
2023-01-02T15:17:43.482Z,16.20
2023-01-02T15:20:19.260Z,16.00
2023-01-02T15:22:48.636Z,15.60
2023-01-02T15:25:36.056Z,16.10
2023-01-02T15:28:05.073Z,16.30
2023-01-02T15:30:38.679Z,15.80
2023-01-02T15:33:26.326Z,15.50
2023-01-02T15:36:00.085Z,15.40
2023-01-02T15:38:28.324Z,15.40
2023-01-02T15:40:57.693Z,15.90
2023-01-02T15:43:46.884Z,15.70
2023-01-02T15:46:17.130Z,15.80
2023-01-02T15:48:48.866Z,15.20
2023-01-02T15:51:19.560Z,15.50
2023-01-02T15:54:10.551Z,15.50
2023-01-02T15:59:28.476Z,15.00
2023-01-02T16:04:30.058Z,13.80
2023-01-02T16:07:01.141Z,14.40
2023-01-02T16:09:32.285Z,15.30
2023-01-02T16:12:03.889Z,14.90
2023-01-02T16:14:37.942Z,15.30
2023-01-02T16:17:14.098Z,15.20
2023-01-02T16:19:58.599Z,14.10
2023-01-02T16:22:31.278Z,15.20
2023-01-02T16:25:05.868Z,14.90
2023-01-02T16:27:41.001Z,14.50
2023-01-02T16:30:37.962Z,13.70
2023-01-02T16:33:22.007Z,13.50
2023-01-02T16:36:00.735Z,14.30
2023-01-02T16:38:30.051Z,15.00
2023-01-02T16:41:02.917Z,13.70
2023-01-02T16:48:44.558Z,13.00
2023-01-02T16:51:15.838Z,12.90
2023-01-02T16:53:45.833Z,12.70
2023-01-02T16:56:15.816Z,12.20
2023-01-02T16:58:44.090Z,12.70
2023-01-02T17:01:15.118Z,13.70
2023-01-02T17:03:44.584Z,13.00
2023-01-02T17:06:18.259Z,13.60
2023-01-02T17:08:46.546Z,13.90
2023-01-02T17:11:17.715Z,14.10
2023-01-02T17:13:46.284Z,13.00
2023-01-02T17:16:14.733Z,12.50
2023-01-02T17:21:13.700Z,12.40
2023-01-02T17:23:42.165Z,12.80
2023-01-02T17:26:10.589Z,12.20
2023-01-02T17:28:39.048Z,12.50
2023-01-02T17:31:07.490Z,13.00
2023-01-02T17:33:35.678Z,12.60
2023-01-02T17:36:03.928Z,13.10
2023-01-02T17:38:33.440Z,12.80
2023-01-02T17:41:01.681Z,13.20
2023-01-02T17:43:29.867Z,13.40
2023-01-02T17:45:58.093Z,13.70
2023-01-02T17:48:26.440Z,13.50
2023-01-02T17:50:56.431Z,13.50
2023-01-02T17:53:24.687Z,12.40
2023-01-02T17:56:20.744Z,13.30
2023-01-02T17:58:44.044Z,14.20
2023-01-02T18:01:18.514Z,15.10
2023-01-02T18:06:17.299Z,14.90
2023-01-02T18:08:46.040Z,15.40
2023-01-02T18:11:17.802Z,15.00
2023-01-02T18:13:49.663Z,15.40
2023-01-02T18:16:21.296Z,15.30
2023-01-02T18:18:51.542Z,14.90
2023-01-02T18:21:23.844Z,14.30
2023-01-02T18:23:57.875Z,14.20
2023-01-02T18:26:28.205Z,14.80
2023-01-02T18:29:02.855Z,13.90
2023-01-02T18:31:45.147Z,14.60
2023-01-02T18:34:46.343Z,15.10
2023-01-02T18:37:18.296Z,14.10
2023-01-02T18:39:46.524Z,13.70
2023-01-02T18:42:21.428Z,13.00
2023-01-02T18:44:50.461Z,13.10
2023-01-02T18:47:28.059Z,13.80
2023-01-02T18:50:03.478Z,14.50
2023-01-02T18:52:33.186Z,13.30
2023-01-02T18:55:07.354Z,14.20
2023-01-02T18:57:44.040Z,13.70
2023-01-02T19:00:21.391Z,14.60
2023-01-02T19:02:57.226Z,14.30
2023-01-02T19:05:29.178Z,14.80
2023-01-02T19:08:14.829Z,13.30
2023-01-02T19:10:46.077Z,14.30
2023-01-02T19:13:20.332Z,13.40
2023-01-02T19:15:51.170Z,14.40
2023-01-02T19:18:35.899Z,14.30
2023-01-02T19:21:18.577Z,13.60
2023-01-02T19:23:52.746Z,14.00
2023-01-02T19:26:28.220Z,14.30
2023-01-02T19:29:07.890Z,14.30
2023-01-02T19:31:43.126Z,14.60
2023-01-02T19:34:29.582Z,14.60
2023-01-02T19:37:19.351Z,14.60
2023-01-02T19:39:52.091Z,14.80
2023-01-02T19:42:21.994Z,13.60
2023-01-02T19:44:54.414Z,12.80
2023-01-02T19:47:26.010Z,13.50
2023-01-02T19:49:54.527Z,14.00
2023-01-02T19:52:24.395Z,14.60
2023-01-02T19:54:53.386Z,13.90
2023-01-02T19:57:23.489Z,14.30
2023-01-02T19:59:56.053Z,14.50
2023-01-02T20:02:25.388Z,14.00
2023-01-02T20:04:55.352Z,13.60
2023-01-02T20:07:25.912Z,13.80
2023-01-02T20:09:54.538Z,14.00
2023-01-02T20:12:34.363Z,14.00
2023-01-02T20:15:07.861Z,14.70
2023-01-02T20:17:37.222Z,14.10
2023-01-02T20:22:36.144Z,14.90
2023-01-02T20:25:04.979Z,15.00
2023-01-02T20:27:33.154Z,14.70
2023-01-02T20:30:01.373Z,14.90
2023-01-02T20:32:30.931Z,14.80
2023-01-02T20:42:25.322Z,15.00
2023-01-02T20:44:53.523Z,12.60
2023-01-02T20:47:21.728Z,13.20
2023-01-02T20:49:51.291Z,13.30
2023-01-02T20:52:20.392Z,13.40
2023-01-02T20:57:21.708Z,14.30
2023-01-02T20:59:49.977Z,13.70
2023-01-02T21:04:46.932Z,12.50
2023-01-02T21:07:16.491Z,12.50
2023-01-02T21:09:44.703Z,13.30
2023-01-02T21:12:26.811Z,12.80
2023-01-02T21:14:55.099Z,13.50
2023-01-02T21:17:23.357Z,13.20
2023-01-02T21:19:51.575Z,12.50
2023-01-02T21:22:21.164Z,13.40
2023-01-02T21:24:49.365Z,13.40
2023-01-02T21:27:17.588Z,13.10
2023-01-02T21:29:46.054Z,13.90
2023-01-02T21:32:14.261Z,14.40
2023-01-02T21:34:42.443Z,14.40
2023-01-02T21:37:10.644Z,14.60
2023-01-02T21:39:40.188Z,14.80
2023-01-02T21:42:17.360Z,14.90
2023-01-02T21:44:47.132Z,15.10
2023-01-02T21:47:15.624Z,14.90
2023-01-02T21:49:43.967Z,14.60
2023-01-02T21:52:12.434Z,14.90
2023-01-02T21:54:42.012Z,15.10
2023-01-02T21:57:10.540Z,14.80
2023-01-02T21:59:38.867Z,15.10
2023-01-02T22:02:07.343Z,14.70
2023-01-02T22:04:36.453Z,14.70
2023-01-02T22:07:30.522Z,14.40
2023-01-02T22:09:54.343Z,14.40
2023-01-02T22:12:22.662Z,14.80
2023-01-02T22:14:50.953Z,15.00
2023-01-02T22:17:19.211Z,15.10
2023-01-02T22:19:47.446Z,14.20
2023-01-02T22:22:15.964Z,14.00
2023-01-02T22:24:45.009Z,14.40
2023-01-02T22:27:17.195Z,14.60
2023-01-02T22:32:35.970Z,14.30
2023-01-02T22:35:06.611Z,14.70
2023-01-02T22:37:35.023Z,14.80
2023-01-02T22:40:03.422Z,13.70
2023-01-02T22:43:00.928Z,14.20
2023-01-02T22:45:35.131Z,14.60
2023-01-02T22:48:07.984Z,14.80
2023-01-02T22:50:44.106Z,13.60
2023-01-02T22:53:22.913Z,14.20
2023-01-02T22:55:51.679Z,14.60
2023-01-02T22:58:22.838Z,14.70
2023-01-02T23:01:01.261Z,14.40
2023-01-02T23:03:32.938Z,14.60
2023-01-02T23:06:01.124Z,14.80
2023-01-02T23:08:29.393Z,15.00
2023-01-02T23:10:57.691Z,14.10
2023-01-02T23:13:27.414Z,13.80
2023-01-02T23:16:13.224Z,12.80
2023-01-02T23:18:59.136Z,13.10
2023-01-02T23:21:30.877Z,13.40
2023-01-02T23:23:59.770Z,13.10
2023-01-02T23:26:32.090Z,13.80
2023-01-02T23:29:07.178Z,13.50
2023-01-02T23:31:40.097Z,14.20
2023-01-02T23:34:09.596Z,14.50
2023-01-02T23:36:38.890Z,14.80
2023-01-02T23:39:09.730Z,14.80
2023-01-02T23:41:38.284Z,14.70
2023-01-02T23:44:08.344Z,14.60
2023-01-02T23:46:37.233Z,14.70
2023-01-02T23:49:06.151Z,14.70
2023-01-02T23:51:35.302Z,14.80
2023-01-02T23:54:03.543Z,14.70
2023-01-02T23:56:36.191Z,14.70
2023-01-02T23:59:09.282Z,14.70
